Time;durP1;ratioP1;P1;durP2;ratioP2;P2;SDS_P1;SDS_P2;PMS_P1;PMS_P2;Temp;Humidity;BMP_temperature;BMP_pressure;BME280_temperature;BME280_humidity;BME280_pressure;Samples;Min_cycle;Max_cycle;Signal;HPM_P1;HPM_P2
2022/04/19 00:01:43;;;;;;;3.30;3.20;;;;;;;7.13;84.76;99212.22;5051667;28;20206;-65
2022/04/19 00:04:11;;;;;;;2.97;2.87;;;;;;;7.17;85.17;99216.13;5051411;28;20197;-66
2022/04/19 00:06:38;;;;;;;3.00;2.70;;;;;;;7.19;84.74;99208.88;5033909;28;20208;-65
2022/04/19 00:09:05;;;;;;;2.90;2.80;;;;;;;7.19;85.06;99211.50;5051272;28;20743;-65
2022/04/19 00:11:32;;;;;;;2.87;2.77;;;;;;;7.15;84.91;99215.50;5051647;28;20191;-64
2022/04/19 00:14:00;;;;;;;3.03;2.83;;;;;;;7.11;85.84;99209.75;5051866;28;20563;-64
2022/04/19 00:16:27;;;;;;;3.10;2.90;;;;;;;7.09;86.23;99216.22;5051064;28;20295;-64
2022/04/19 00:18:54;;;;;;;3.10;3.00;;;;;;;6.98;85.59;99209.56;5051518;28;20199;-64
2022/04/19 00:21:22;;;;;;;2.73;2.63;;;;;;;6.95;87.18;99203.84;5051831;28;20616;-66
2022/04/19 00:23:49;;;;;;;2.60;2.50;;;;;;;7.02;87.48;99210.84;5051176;28;20192;-65
2022/04/19 00:26:16;;;;;;;2.67;2.57;;;;;;;7.02;86.98;99210.84;5051656;28;20201;-66
2022/04/19 00:28:43;;;;;;;3.07;2.93;;;;;;;6.93;86.40;99213.72;5053642;28;20194;-64
2022/04/19 00:31:10;;;;;;;3.00;2.90;;;;;;;6.83;86.94;99211.38;5055153;28;20224;-65
2022/04/19 00:33:39;;;;;;;2.87;2.77;;;;;;;6.76;86.85;99209.59;5055973;28;20189;-65
2022/04/19 00:36:07;;;;;;;3.00;2.90;;;;;;;6.68;87.35;99204.41;5054728;28;20550;-65
2022/04/19 00:38:35;;;;;;;3.03;2.93;;;;;;;6.66;87.28;99206.41;5054682;28;20681;-65
2022/04/19 00:41:02;;;;;;;2.90;2.80;;;;;;;6.55;87.59;99193.63;5054671;28;20204;-65
2022/04/19 00:43:29;;;;;;;2.93;2.73;;;;;;;6.56;87.75;99203.19;5054572;28;20627;-65
2022/04/19 00:45:55;;;;;;;2.70;2.53;;;;;;;6.53;87.34;99198.28;5054304;28;20188;-64
2022/04/19 00:48:22;;;;;;;3.10;2.90;;;;;;;6.60;88.02;99204.47;5055185;28;20262;-66
2022/04/19 00:50:50;;;;;;;3.27;2.97;;;;;;;6.64;88.06;99196.03;5055056;28;20222;-66
2022/04/19 00:53:18;;;;;;;3.10;3.00;;;;;;;6.68;88.06;99201.75;5054736;28;20197;-65
2022/04/19 00:55:47;;;;;;;3.30;2.80;;;;;;;6.59;87.83;99203.66;5054492;28;20192;-65
2022/04/19 00:58:13;;;;;;;3.20;2.90;;;;;;;6.58;88.39;99195.94;5054635;28;20198;-65
2022/04/19 01:00:43;;;;;;;3.27;3.07;;;;;;;6.70;88.44;99197.16;5054588;28;20453;-65
2022/04/19 01:03:10;;;;;;;3.10;2.80;;;;;;;6.77;87.86;99195.44;5054623;28;20205;-65
2022/04/19 01:05:37;;;;;;;3.03;2.93;;;;;;;6.75;87.41;99192.13;5054321;28;20245;-66
2022/04/19 01:08:05;;;;;;;2.80;2.70;;;;;;;6.79;87.86;99193.41;5054425;28;20296;-65
2022/04/19 01:10:32;;;;;;;2.63;2.53;;;;;;;6.87;87.89;99201.25;5054520;28;20229;-65
2022/04/19 01:13:17;;;;;;;2.90;2.80;;;;;;;6.82;87.88;99190.44;5054379;28;20188;-64
2022/04/19 01:15:46;;;;;;;3.10;2.90;;;;;;;6.74;88.30;99199.22;5053853;28;20619;-65
2022/04/19 01:18:14;;;;;;;3.00;2.90;;;;;;;6.74;88.54;99201.06;5053920;28;20246;-65
2022/04/19 01:20:41;;;;;;;2.80;2.70;;;;;;;6.78;88.38;99197.06;5054170;28;20204;-64
2022/04/19 01:23:09;;;;;;;3.57;3.33;;;;;;;6.83;88.05;99195.53;5054088;28;20238;-64
2022/04/19 01:25:36;;;;;;;3.17;2.90;;;;;;;6.91;87.89;99194.63;5053953;28;20735;-65
2022/04/19 01:28:03;;;;;;;3.10;3.00;;;;;;;6.95;87.29;99198.56;5054381;28;20208;-65
2022/04/19 01:30:52;;;;;;;3.40;3.10;;;;;;;6.99;87.19;99194.56;5053920;28;20228;-66
2022/04/19 01:33:20;;;;;;;3.53;3.23;;;;;;;7.03;87.95;99190.53;5054834;28;20223;-64
2022/04/19 01:35:47;;;;;;;3.10;3.00;;;;;;;7.05;87.08;99193.81;5053859;28;20207;-65
2022/04/19 01:38:15;;;;;;;3.73;3.40;;;;;;;6.96;88.48;99187.81;5053160;28;20247;-67
2022/04/19 01:40:42;;;;;;;4.27;3.87;;;;;;;7.00;88.54;99186.44;5053220;28;20201;-65
2022/04/19 01:43:09;;;;;;;3.40;3.20;;;;;;;7.02;87.86;99183.63;5053822;28;20743;-65
2022/04/19 01:45:35;;;;;;;3.60;3.40;;;;;;;7.04;87.71;99181.63;5053835;28;20250;-65
2022/04/19 01:48:03;;;;;;;4.17;3.87;;;;;;;7.08;87.14;99188.19;5053511;28;20585;-66
2022/04/19 01:50:31;;;;;;;3.60;3.40;;;;;;;7.04;86.74;99181.63;5053642;28;20220;-64
2022/04/19 01:53:00;;;;;;;2.80;2.70;;;;;;;7.09;86.85;99173.97;5054001;28;20296;-65
2022/04/19 01:55:28;;;;;;;3.37;3.20;;;;;;;7.11;86.86;99182.53;5053218;28;20271;-65
2022/04/19 01:57:57;;;;;;;3.43;3.13;;;;;;;7.09;86.32;99176.59;5053477;28;20192;-65
2022/04/19 02:00:25;;;;;;;2.97;2.87;;;;;;;7.07;85.59;99181.25;5053384;28;20207;-66
2022/04/19 02:02:55;;;;;;;3.70;3.40;;;;;;;7.08;85.95;99178.44;5052920;28;20767;-65
2022/04/19 02:05:22;;;;;;;3.30;3.10;;;;;;;7.11;85.57;99187.81;5053404;28;20199;-65
2022/04/19 02:07:48;;;;;;;3.47;3.20;;;;;;;7.16;85.93;99178.34;5053970;28;20195;-65
2022/04/19 02:10:17;;;;;;;3.00;2.90;;;;;;;7.18;85.53;99173.69;5052910;28;20651;-65
2022/04/19 02:12:45;;;;;;;3.10;2.83;;;;;;;7.16;85.31;99173.06;5053168;28;20194;-65
2022/04/19 02:15:12;;;;;;;5.30;3.30;;;;;;;7.05;84.93;99173.53;5053173;28;20224;-65
2022/04/19 02:17:45;;;;;;;3.03;2.83;;;;;;;6.98;83.77;99167.31;5053161;28;20261;-64
2022/04/19 02:20:14;;;;;;;2.97;2.70;;;;;;;6.95;83.70;99178.25;5053683;28;20556;-64
2022/04/19 02:22:41;;;;;;;3.00;2.70;;;;;;;6.89;83.90;99172.84;5052957;28;20227;-65
2022/04/19 02:25:11;;;;;;;3.60;2.73;;;;;;;6.69;84.46;99155.94;5052744;28;20287;-65
2022/04/19 02:27:40;;;;;;;3.17;3.07;;;;;;;6.78;84.65;99170.69;5052853;28;20192;-64
2022/04/19 02:30:13;;;;;;;3.10;2.90;;;;;;;6.80;85.62;99168.66;5052884;28;20251;-67
2022/04/19 02:32:40;;;;;;;3.90;2.50;;;;;;;6.79;84.69;99167.03;5052661;28;20272;-64
2022/04/19 02:35:07;;;;;;;2.73;2.63;;;;;;;6.84;83.79;99159.38;5053052;28;20196;-65
2022/04/19 02:37:34;;;;;;;3.03;2.83;;;;;;;6.90;84.08;99169.25;5052435;28;20675;-65
2022/04/19 02:40:01;;;;;;;6.60;3.10;;;;;;;6.82;84.12;99174.59;5052846;28;20195;-64
2022/04/19 02:42:28;;;;;;;3.10;2.80;;;;;;;6.79;84.63;99172.31;5052401;28;20200;-65
2022/04/19 02:44:56;;;;;;;2.60;2.50;;;;;;;6.63;84.65;99172.44;5052601;28;20200;-64
2022/04/19 02:47:24;;;;;;;3.00;2.90;;;;;;;6.63;85.39;99172.44;5052563;28;20204;-65
2022/04/19 02:49:51;;;;;;;2.97;2.87;;;;;;;6.64;85.54;99169.66;5051894;28;20194;-65
2022/04/19 02:52:18;;;;;;;3.20;3.00;;;;;;;6.75;85.52;99161.31;5051973;28;20258;-65
2022/04/19 02:54:44;;;;;;;3.10;3.00;;;;;;;6.78;85.21;99170.69;5052285;28;20221;-65
2022/04/19 02:57:11;;;;;;;4.00;2.93;;;;;;;6.76;84.82;99184.03;5052027;28;20224;-64
2022/04/19 02:59:38;;;;;;;2.90;2.80;;;;;;;6.79;85.18;99173.13;5052116;28;20192;-64
2022/04/19 03:02:05;;;;;;;3.10;2.90;;;;;;;6.80;85.74;99168.66;5051989;28;20629;-65
2022/04/19 03:04:33;;;;;;;3.00;2.90;;;;;;;6.79;85.20;99173.13;5051971;28;20197;-64
2022/04/19 03:07:01;;;;;;;3.27;3.07;;;;;;;6.72;85.52;99177.47;5051974;28;20737;-64
2022/04/19 03:09:27;;;;;;;3.53;3.33;;;;;;;6.73;85.44;99178.31;5052154;28;20199;-64
2022/04/19 03:11:54;;;;;;;3.73;3.43;;;;;;;6.62;85.34;99176.91;5052276;28;20222;-64
2022/04/19 03:14:21;;;;;;;3.30;3.10;;;;;;;6.57;85.49;99183.75;5052109;28;20252;-65
2022/04/19 03:16:48;;;;;;;4.20;3.43;;;;;;;6.53;85.56;99183.25;5052063;28;20284;-64
2022/04/19 03:19:15;;;;;;;3.83;3.63;;;;;;;6.47;86.29;99178.69;5051555;28;20192;-65
2022/04/19 03:21:43;;;;;;;3.73;3.43;;;;;;;6.48;86.58;99184.78;5051665;28;20661;-65
2022/04/19 03:29:37;;;;;;;3.97;3.60;;;;;;;6.31;88.43;99183.28;5052339;28;20184;-65
2022/04/19 03:32:05;;;;;;;4.20;3.83;;;;;;;6.36;89.07;99189.66;5051718;28;20247;-65
2022/04/19 03:34:31;;;;;;;4.77;4.33;;;;;;;6.32;88.56;99190.22;5051850;28;20192;-64
2022/04/19 03:36:59;;;;;;;4.07;3.83;;;;;;;6.31;88.78;99193.81;5051464;28;20757;-64
2022/04/19 03:39:26;;;;;;;5.07;4.70;;;;;;;6.32;89.28;99182.31;5052110;28;20200;-65
2022/04/19 03:41:59;;;;;;;4.87;4.47;;;;;;;6.33;89.70;99192.66;5051821;28;20662;-64
2022/04/19 03:44:26;;;;;;;5.20;4.83;;;;;;;6.32;89.97;99187.56;5051492;28;20737;-64
2022/04/19 03:47:08;;;;;;;5.17;4.70;;;;;;;6.40;90.90;99188.31;5051678;28;20204;-64
2022/04/19 03:49:36;;;;;;;5.10;4.03;;;;;;;6.44;89.80;99183.50;5052348;28;20273;-64
2022/04/19 03:52:05;;;;;;;4.50;4.10;;;;;;;6.51;90.42;99185.25;5051351;28;20706;-64
2022/04/19 03:54:34;;;;;;;4.47;4.10;;;;;;;6.59;90.48;99187.00;5051241;28;20666;-66
2022/04/19 03:57:01;;;;;;;4.30;4.10;;;;;;;6.63;89.81;99189.13;5051555;28;20219;-65
2022/04/19 03:59:28;;;;;;;4.37;4.17;;;;;;;6.67;89.77;99189.56;5051122;28;20188;-65
2022/04/19 04:01:54;;;;;;;3.90;3.70;;;;;;;6.66;89.47;99190.56;5053038;28;20194;-65
2022/04/19 04:04:22;;;;;;;4.00;3.80;;;;;;;6.69;90.26;99193.66;5055749;28;20279;-65
2022/04/19 04:06:48;;;;;;;4.43;3.80;;;;;;;6.73;90.46;99194.16;5056263;28;20232;-65
2022/04/19 04:09:16;;;;;;;4.33;3.97;;;;;;;6.77;91.17;99195.44;5055291;28;20211;-67
2022/04/19 04:11:43;;;;;;;4.10;3.90;;;;;;;6.81;90.94;99202.81;5055530;28;20274;-68
2022/04/19 04:14:10;;;;;;;4.40;4.20;;;;;;;6.81;90.80;99202.00;5055236;28;20195;-68
2022/04/19 04:16:37;;;;;;;4.97;4.50;;;;;;;6.72;90.46;99203.03;5055893;28;20228;-69
2022/04/19 04:19:03;;;;;;;5.33;5.03;;;;;;;6.63;90.79;99204.13;5055660;28;20262;-67
2022/04/19 04:21:30;;;;;;;4.27;4.07;;;;;;;6.61;91.72;99211.41;5055296;28;20192;-69
2022/04/19 04:23:57;;;;;;;4.97;4.67;;;;;;;6.55;91.74;99212.09;5054998;28;20192;-68
2022/04/19 04:26:25;;;;;;;5.43;4.97;;;;;;;6.58;92.64;99211.75;5055060;28;20212;-69
2022/04/19 04:28:51;;;;;;;4.40;4.20;;;;;;;6.63;91.65;99212.88;5055064;28;20261;-69
2022/04/19 04:31:18;;;;;;;4.27;4.07;;;;;;;6.74;92.15;99214.25;5045240;28;20285;-68
2022/04/19 04:33:45;;;;;;;4.20;3.90;;;;;;;6.75;90.74;99218.53;5043471;28;20580;-69
2022/04/19 04:36:12;;;;;;;4.77;4.47;;;;;;;6.79;90.79;99220.66;5048391;28;20195;-68
2022/04/19 04:38:38;;;;;;;10.80;5.03;;;;;;;6.81;90.54;99228.41;5045884;28;20713;-69
2022/04/19 04:41:05;;;;;;;5.40;4.20;;;;;;;6.89;90.63;99225.66;5050588;28;20197;-68
2022/04/19 04:43:33;;;;;;;4.43;4.20;;;;;;;7.00;90.03;99231.34;5054557;28;20622;-67
2022/04/19 04:51:27;;;;;;;3.60;3.50;;;;;;;7.07;90.01;99239.34;5054573;28;20217;-68
2022/04/19 04:53:54;;;;;;;4.30;3.83;;;;;;;7.07;89.63;99242.00;5053079;28;20200;-68
2022/04/19 04:56:23;;;;;;;5.30;4.37;;;;;;;7.08;89.67;99243.63;5052736;28;20192;-69
2022/04/19 04:58:51;;;;;;;4.60;4.30;;;;;;;7.14;90.68;99251.66;5052238;28;20200;-69
2022/04/19 05:01:17;;;;;;;4.60;4.40;;;;;;;7.14;89.22;99251.66;5053397;28;20625;-66
2022/04/19 05:03:44;;;;;;;4.20;4.00;;;;;;;7.23;88.99;99236.56;5049041;28;20309;-70
2022/04/19 05:06:11;;;;;;;5.57;3.83;;;;;;;7.31;88.60;99239.13;5045521;28;20201;-68
2022/04/19 05:08:37;;;;;;;3.73;3.53;;;;;;;7.36;87.61;99239.38;5045270;28;20194;-71
2022/04/19 05:11:04;;;;;;;2.90;2.80;;;;;;;7.33;85.17;99245.03;5053539;28;20214;-72
2022/04/19 05:13:31;;;;;;;5.53;3.30;;;;;;;7.31;85.10;99242.56;5051942;28;20787;-69
2022/04/19 05:15:59;;;;;;;3.97;3.67;;;;;;;7.38;85.69;99243.47;5053531;28;20270;-70
2022/04/19 05:18:26;;;;;;;3.10;3.00;;;;;;;7.79;94.62;99242.00;5054202;28;20231;-69
2022/04/19 05:20:53;;;;;;;2.90;2.80;;;;;;;7.67;86.24;99245.31;5053188;28;20196;-70
2022/04/19 05:23:20;;;;;;;2.77;2.67;;;;;;;7.60;83.51;99249.69;5054249;28;20553;-70
2022/04/19 05:25:47;;;;;;;3.03;2.83;;;;;;;7.90;89.63;99238.06;5052943;28;20447;-67
2022/04/19 05:28:13;;;;;;;2.63;2.53;;;;;;;7.85;81.83;99236.00;5053776;28;20198;-69
2022/04/19 05:30:41;;;;;;;2.83;2.73;;;;;;;7.91;82.14;99239.69;5053857;28;20200;-69
2022/04/19 05:33:11;;;;;;;3.03;2.87;;;;;;;7.97;81.91;99250.34;5043515;28;20248;-68
2022/04/19 05:35:38;;;;;;;2.50;2.40;;;;;;;7.89;81.51;99242.56;5051474;28;20232;-67
2022/04/19 05:38:04;;;;;;;3.10;3.00;;;;;;;7.78;79.93;99252.75;5038145;28;20196;-68
2022/04/19 05:40:31;;;;;;;10.70;2.80;;;;;;;7.73;79.89;99249.84;5053610;28;20247;-69
2022/04/19 05:42:58;;;;;;;5.17;3.47;;;;;;;7.65;80.90;99256.06;5053707;28;20260;-67
2022/04/19 05:45:25;;;;;;;2.77;2.67;;;;;;;7.77;80.62;99248.47;5053492;28;20196;-68
2022/04/19 05:47:51;;;;;;;4.97;3.77;;;;;;;7.93;80.46;99253.56;5053901;28;20228;-68
2022/04/19 05:50:19;;;;;;;6.50;3.50;;;;;;;7.90;78.51;99259.22;5037534;28;20197;-64
2022/04/19 05:52:46;;;;;;;7.40;3.87;;;;;;;7.79;77.42;99260.50;5033047;28;20221;-65
2022/04/19 05:55:13;;;;;;;2.60;2.37;;;;;;;7.68;77.49;99265.44;5041393;28;20189;-65
2022/04/19 05:57:39;;;;;;;7.97;3.43;;;;;;;7.56;78.58;99273.00;5048688;28;20581;-65
2022/04/19 06:00:07;;;;;;;9.17;3.30;;;;;;;7.54;80.37;99271.53;5052894;28;20195;-65
2022/04/19 06:05:20;;;;;;;4.23;3.13;;;;;;;7.76;78.67;99273.28;5053261;28;20207;-66
2022/04/19 06:07:52;;;;;;;5.60;3.20;;;;;;;7.86;78.19;99279.09;5052484;28;20265;-66
2022/04/19 06:10:19;;;;;;;8.13;3.20;;;;;;;8.05;78.55;99278.53;5052413;28;20184;-67
2022/04/19 06:12:46;;;;;;;5.57;3.97;;;;;;;8.25;77.64;99282.28;5046344;28;20217;-66
2022/04/19 06:15:13;;;;;;;7.00;6.50;;;;;;;8.30;76.49;99282.53;5038574;28;20279;-67
2022/04/19 06:17:40;;;;;;;4.60;3.33;;;;;;;8.46;77.27;99288.41;5031773;28;20193;-65
2022/04/19 06:20:08;;;;;;;4.03;3.73;;;;;;;8.33;76.79;99287.47;5032568;28;20750;-66
2022/04/19 06:22:37;;;;;;;5.90;4.17;;;;;;;8.45;75.83;99291.25;5015133;28;20678;-63
2022/04/19 06:25:04;;;;;;;72.33;29.07;;;;;;;8.52;74.50;99302.72;5033307;28;20255;-66
2022/04/19 06:27:31;;;;;;;6.23;5.63;;;;;;;8.43;73.47;99303.84;5032402;28;20193;-65
2022/04/19 06:29:58;;;;;;;4.70;4.40;;;;;;;8.49;74.63;99292.53;5032542;28;20625;-67
2022/04/19 06:32:25;;;;;;;4.87;4.40;;;;;;;8.58;75.40;99291.38;5032417;28;20260;-67
2022/04/19 06:34:53;;;;;;;4.07;3.20;;;;;;;8.71;75.11;99307.41;5032613;28;20252;-66
2022/04/19 06:37:20;;;;;;;5.50;3.27;;;;;;;8.79;73.69;99308.09;5032830;28;20212;-66
2022/04/19 06:39:48;;;;;;;3.70;3.40;;;;;;;8.66;72.91;99307.97;5043584;28;20200;-64
2022/04/19 06:42:15;;;;;;;4.20;3.90;;;;;;;8.55;73.18;99310.28;5052034;28;20628;-64
2022/04/19 06:44:42;;;;;;;4.23;3.30;;;;;;;8.49;72.78;99313.69;5052596;28;20250;-66
2022/04/19 06:47:09;;;;;;;4.43;3.23;;;;;;;8.55;74.61;99302.34;5052042;28;20662;-66
2022/04/19 06:49:37;;;;;;;5.60;5.10;;;;;;;8.56;74.43;99299.50;5052531;28;20192;-65
2022/04/19 06:52:06;;;;;;;8.10;3.53;;;;;;;8.62;74.84;99304.03;5050992;28;20224;-66
2022/04/19 06:54:33;;;;;;;3.73;3.43;;;;;;;8.49;74.14;99313.69;5052584;28;20277;-67
2022/04/19 06:57:01;;;;;;;5.10;3.17;;;;;;;8.36;74.39;99310.88;5052486;28;20242;-66
2022/04/19 06:59:28;;;;;;;5.80;4.33;;;;;;;8.26;74.72;99307.72;5048265;28;20196;-67
2022/04/19 07:01:54;;;;;;;8.80;4.70;;;;;;;8.05;76.91;99307.63;5051967;28;20266;-67
2022/04/19 07:04:21;;;;;;;5.27;4.77;;;;;;;7.85;79.70;99303.91;5052171;28;20193;-65
2022/04/19 07:06:49;;;;;;;8.07;5.87;;;;;;;7.71;78.55;99312.66;5048739;28;20196;-65
2022/04/19 07:09:17;;;;;;;5.23;4.87;;;;;;;7.80;78.72;99308.94;5038256;28;20205;-66
2022/04/19 07:11:43;;;;;;;6.17;5.57;;;;;;;7.85;79.75;99314.50;5030624;28;20251;-65
2022/04/19 07:14:11;;;;;;;7.30;6.40;;;;;;;7.98;78.55;99315.50;5033251;28;20196;-63
2022/04/19 07:16:38;;;;;;;4.67;4.37;;;;;;;8.04;77.23;99311.28;5031787;28;20233;-64
2022/04/19 07:19:05;;;;;;;5.07;4.67;;;;;;;8.12;76.92;99316.44;5033810;28;20201;-65
2022/04/19 07:27:00;;;;;;;3.77;3.47;;;;;;;8.30;74.00;99324.88;5049673;28;20199;-65
2022/04/19 07:29:28;;;;;;;9.43;3.97;;;;;;;8.39;73.08;99323.75;5049351;28;20295;-65
2022/04/19 07:31:56;;;;;;;9.77;4.33;;;;;;;8.45;73.15;99329.09;5050727;28;20262;-65
2022/04/19 07:34:24;;;;;;;4.13;3.93;;;;;;;8.53;73.11;99330.84;5051470;28;20255;-65
2022/04/19 07:36:51;;;;;;;18.50;7.47;;;;;;;8.60;72.96;99323.78;5055963;28;20600;-65
2022/04/19 07:39:18;;;;;;;8.37;4.53;;;;;;;8.41;72.84;99327.84;5058442;28;20200;-65
2022/04/19 07:41:47;;;;;;;4.87;4.60;;;;;;;8.51;73.52;99331.03;5058343;28;20231;-66
2022/04/19 07:44:15;;;;;;;6.40;5.07;;;;;;;8.59;73.11;99330.09;5058461;28;20223;-66
2022/04/19 07:46:43;;;;;;;4.80;4.50;;;;;;;8.74;73.38;99321.06;5057368;28;20188;-64
2022/04/19 07:49:10;;;;;;;4.63;4.33;;;;;;;8.95;73.10;99314.97;5058093;28;20202;-63
2022/04/19 07:51:37;;;;;;;4.83;4.07;;;;;;;9.05;72.61;99326.06;5057351;28;20282;-64
2022/04/19 07:54:03;;;;;;;5.27;4.77;;;;;;;9.05;71.95;99315.47;5057048;28;20619;-63
2022/04/19 07:56:30;;;;;;;6.10;4.87;;;;;;;9.28;71.68;99316.88;5038930;28;20670;-64
2022/04/19 07:58:57;;;;;;;5.53;3.83;;;;;;;9.47;69.18;99320.69;5037094;28;20197;-64
2022/04/19 08:01:24;;;;;;;4.20;3.90;;;;;;;9.58;67.65;99328.13;5037121;28;20628;-64
2022/04/19 08:03:52;;;;;;;8.23;3.60;;;;;;;10.02;67.93;99328.59;5036369;28;20283;-65
2022/04/19 08:06:19;;;;;;;4.30;4.07;;;;;;;10.35;66.14;99332.25;5041656;28;20254;-64
2022/04/19 08:08:46;;;;;;;4.27;3.97;;;;;;;10.54;63.79;99342.13;5056560;28;20219;-63
2022/04/19 08:11:13;;;;;;;4.20;4.00;;;;;;;10.77;63.49;99348.75;5057750;28;20197;-63
2022/04/19 08:13:40;;;;;;;6.90;4.23;;;;;;;11.02;62.74;99342.88;5056951;28;20202;-62
2022/04/19 08:16:08;;;;;;;4.50;4.20;;;;;;;11.46;60.59;99341.25;5056769;28;20291;-62
2022/04/19 08:18:35;;;;;;;4.10;3.73;;;;;;;11.96;61.17;99348.56;5056086;28;20201;-62
2022/04/19 08:21:03;;;;;;;7.03;4.00;;;;;;;12.60;57.88;99348.56;5056631;28;20202;-62
2022/04/19 08:23:30;;;;;;;4.53;4.13;;;;;;;12.73;53.90;99349.31;5057176;28;20670;-62
2022/04/19 08:25:57;;;;;;;4.03;3.83;;;;;;;13.06;54.46;99349.13;5056305;28;20582;-62
2022/04/19 08:28:23;;;;;;;3.50;3.20;;;;;;;13.22;53.81;99357.44;5056954;28;20299;-65
2022/04/19 08:30:50;;;;;;;5.13;4.67;;;;;;;13.29;52.27;99360.06;5057780;28;20193;-66
2022/04/19 08:33:17;;;;;;;6.87;4.37;;;;;;;13.21;53.11;99352.31;5057075;28;20224;-67
2022/04/19 08:35:43;;;;;;;5.50;4.47;;;;;;;13.35;52.56;99353.88;5057417;28;20246;-66
2022/04/19 08:38:11;;;;;;;3.70;3.50;;;;;;;13.60;52.79;99352.81;5058056;28;20204;-66
2022/04/19 08:40:38;;;;;;;11.47;3.60;;;;;;;13.77;52.52;99348.56;5049181;28;20197;-66
2022/04/19 08:43:05;;;;;;;9.07;3.43;;;;;;;13.89;52.45;99344.13;5037531;28;20202;-74
2022/04/19 08:45:33;;;;;;;3.47;3.17;;;;;;;13.85;51.31;99342.94;5057566;28;20207;-65
2022/04/19 08:48:01;;;;;;;20.10;5.33;;;;;;;13.84;51.39;99343.19;5055222;28;20201;-64
2022/04/19 08:50:29;;;;;;;27.53;5.20;;;;;;;13.70;53.15;99337.16;5054735;28;20275;-63
2022/04/19 08:58:26;;;;;;;41.47;7.00;;;;;;;13.25;52.76;99337.53;5054235;28;20669;-64
2022/04/19 09:00:52;;;;;;;4.53;4.10;;;;;;;13.09;53.69;99338.88;5053887;28;20196;-64
2022/04/19 09:03:20;;;;;;;4.17;3.90;;;;;;;13.46;51.47;99329.97;5054071;28;20223;-65
2022/04/19 09:05:51;;;;;;;4.27;3.90;;;;;;;13.59;51.52;99329.84;5053974;28;20196;-63
2022/04/19 09:08:19;;;;;;;3.90;3.70;;;;;;;13.80;52.39;99326.75;5034228;28;20667;-64
2022/04/19 09:10:47;;;;;;;4.27;3.97;;;;;;;13.70;53.11;99329.13;5034432;28;20215;-65
2022/04/19 09:13:21;;;;;;;4.47;4.17;;;;;;;13.85;52.13;99331.47;5046787;28;20254;-61
2022/04/19 09:15:49;;;;;;;16.70;5.37;;;;;;;13.38;51.89;99332.91;5054170;28;20235;-62
2022/04/19 09:18:24;;;;;;;8.57;4.67;;;;;;;13.07;53.77;99324.94;5054015;28;20197;-61
2022/04/19 09:20:51;;;;;;;3.73;3.37;;;;;;;13.25;53.07;99325.00;5054371;28;20261;-61
2022/04/19 09:23:18;;;;;;;4.53;4.23;;;;;;;13.60;52.22;99320.78;5053858;28;20664;-61
2022/04/19 09:25:47;;;;;;;3.93;3.63;;;;;;;13.72;52.38;99321.72;5054115;28;20251;-61
2022/04/19 09:28:18;;;;;;;3.80;3.17;;;;;;;13.78;51.63;99322.69;5054308;28;20242;-61
2022/04/19 09:30:46;;;;;;;6.67;3.77;;;;;;;13.75;50.53;99328.47;5053720;28;20682;-61
2022/04/19 09:33:14;;;;;;;5.30;3.17;;;;;;;13.87;49.83;99327.53;5053754;28;20216;-63
2022/04/19 09:35:44;;;;;;;5.00;3.30;;;;;;;14.16;51.50;99318.78;5053868;28;20200;-63
2022/04/19 09:38:12;;;;;;;8.80;4.17;;;;;;;14.21;49.28;99318.16;5053351;28;20736;-68
2022/04/19 09:40:41;;;;;;;3.07;2.97;;;;;;;13.67;48.42;99326.91;5053501;28;20272;-64
2022/04/19 09:43:20;;;;;;;3.03;2.80;;;;;;;13.48;50.39;99303.88;5052907;28;20228;-63
2022/04/19 09:45:54;;;;;;;8.53;3.17;;;;;;;13.99;49.48;99320.41;5053949;28;20279;-63
2022/04/19 09:48:22;;;;;;;6.97;2.67;;;;;;;14.29;50.21;99315.97;5053449;28;20653;-64
2022/04/19 09:50:55;;;;;;;5.20;2.90;;;;;;;14.42;48.58;99321.16;5053431;28;20243;-64
2022/04/19 09:53:23;;;;;;;4.23;2.50;;;;;;;14.60;48.00;99318.47;5053145;28;20788;-65
2022/04/19 09:55:55;;;;;;;5.57;2.77;;;;;;;14.55;47.87;99317.53;5053358;28;20270;-64
2022/04/19 09:58:24;;;;;;;4.20;2.60;;;;;;;14.33;46.88;99314.50;5053732;28;20191;-64
2022/04/19 10:00:52;;;;;;;3.97;3.10;;;;;;;14.54;47.53;99319.38;5052983;28;20192;-63
2022/04/19 10:08:52;;;;;;;3.20;2.90;;;;;;;14.45;48.44;99298.50;5053513;28;20290;-64
2022/04/19 10:11:19;;;;;;;3.57;3.30;;;;;;;14.20;50.19;99301.28;5052883;28;20224;-64
2022/04/19 10:13:47;;;;;;;7.70;3.77;;;;;;;14.48;48.38;99301.56;5052889;28;20725;-64
2022/04/19 10:16:15;;;;;;;3.90;2.87;;;;;;;14.98;46.00;99304.75;5052817;28;20259;-64
2022/04/19 10:18:44;;;;;;;2.53;2.33;;;;;;;15.15;43.90;99303.88;5052914;28;20192;-63
2022/04/19 10:21:17;;;;;;;2.63;2.43;;;;;;;15.09;45.24;99290.59;5052540;28;20192;-63
2022/04/19 10:23:44;;;;;;;2.50;2.40;;;;;;;14.77;44.20;99295.41;5053907;28;20189;-63
2022/04/19 10:26:17;;;;;;;2.23;2.07;;;;;;;15.04;45.24;99301.97;5052834;28;20283;-60
2022/04/19 10:28:45;;;;;;;1.83;1.77;;;;;;;15.21;43.22;99300.28;5052334;28;20281;-60
2022/04/19 10:31:14;;;;;;;4.90;2.20;;;;;;;15.21;42.95;99294.94;5051710;28;20280;-61
2022/04/19 10:33:47;;;;;;;4.00;2.10;;;;;;;15.05;42.75;99295.63;5051472;28;20251;-64
2022/04/19 10:36:17;;;;;;;6.43;2.43;;;;;;;15.13;45.09;99283.75;5050977;28;20192;-62
2022/04/19 10:38:45;;;;;;;2.30;2.10;;;;;;;15.38;43.71;99295.94;5052358;28;20203;-62
2022/04/19 10:41:33;;;;;;;26.37;3.57;;;;;;;15.57;42.06;99294.75;5052993;28;20258;-62
2022/04/19 10:44:26;;;;;;;1.70;1.70;;;;;;;15.92;40.37;99291.25;5048800;28;20291;-67
2022/04/19 10:47:15;;;;;;;1.90;1.60;;;;;;;16.08;38.55;99279.81;5031726;28;20225;-71
2022/04/19 10:50:07;;;;;;;1.97;1.87;;;;;;;16.05;37.77;99264.22;5031783;28;20186;-66
2022/04/19 10:52:52;;;;;;;1.87;1.70;;;;;;;16.04;38.35;99265.28;5031119;28;20698;-70
2022/04/19 10:55:24;;;;;;;2.40;2.20;;;;;;;16.22;38.41;99249.00;5032311;28;20200;-66
2022/04/19 10:58:09;;;;;;;3.40;2.40;;;;;;;16.58;37.81;99243.31;5032476;28;20189;-66
2022/04/19 11:00:53;;;;;;;2.23;2.07;;;;;;;16.74;37.62;99226.44;5032872;28;20612;-66
2022/04/19 11:03:39;;;;;;;2.90;2.50;;;;;;;16.71;38.11;99221.56;5031963;28;20621;-67
2022/04/19 11:06:09;;;;;;;1.80;1.70;;;;;;;16.85;37.21;99239.78;5034750;28;20190;-66
2022/04/19 11:08:38;;;;;;;2.27;2.07;;;;;;;17.00;36.75;99237.38;5052296;28;20184;-75
2022/04/19 11:11:25;;;;;;;2.23;1.70;;;;;;;17.17;36.15;99242.72;5051385;28;20197;-66
2022/04/19 11:14:18;;;;;;;1.97;1.87;;;;;;;17.04;36.46;99243.03;5051421;28;20215;-67
2022/04/19 11:16:49;;;;;;;2.17;2.07;;;;;;;16.91;36.54;99240.69;5051214;28;20292;-70
2022/04/19 11:19:20;;;;;;;2.43;2.30;;;;;;;16.99;36.70;99234.91;5051832;28;20189;-66
2022/04/19 11:21:49;;;;;;;3.60;2.33;;;;;;;17.01;36.20;99247.03;5052304;28;20240;-65
2022/04/19 11:24:49;;;;;;;2.77;2.53;;;;;;;17.21;35.36;99236.63;5051043;28;20199;-66
2022/04/19 11:27:16;;;;;;;5.83;2.00;;;;;;;17.05;36.01;99239.31;5051749;28;20207;-64
2022/04/19 11:29:47;;;;;;;3.73;1.93;;;;;;;16.92;36.26;99237.75;5051045;28;20596;-65
2022/04/19 11:32:20;;;;;;;2.97;2.20;;;;;;;16.60;38.15;99241.19;5051324;28;20289;-66
2022/04/19 11:34:59;;;;;;;3.83;2.70;;;;;;;16.56;38.30;99232.00;5050359;28;20279;-67
2022/04/19 11:37:26;;;;;;;2.90;2.70;;;;;;;16.50;38.81;99230.28;5050077;28;20207;-66
2022/04/19 11:48:09;;;;;;;3.30;3.10;;;;;;;16.26;39.63;99231.41;5030073;28;20265;-67
2022/04/19 11:50:37;;;;;;;4.03;3.73;;;;;;;16.36;39.43;99239.63;5029960;28;20189;-72
2022/04/19 11:53:04;;;;;;;3.37;3.17;;;;;;;16.27;39.64;99230.34;5032956;28;20699;-69
2022/04/19 11:55:31;;;;;;;4.60;2.30;;;;;;;16.26;40.05;99239.44;5050675;28;20250;-68
2022/04/19 11:58:05;;;;;;;1.77;1.70;;;;;;;16.15;38.35;99221.53;5050829;28;20197;-69
2022/04/19 12:00:32;;;;;;;4.53;2.90;;;;;;;16.16;38.89;99242.72;5050660;28;20678;-68
2022/04/19 12:02:59;;;;;;;3.30;3.10;;;;;;;16.00;39.68;99240.00;5050452;28;20263;-68
2022/04/19 12:05:26;;;;;;;3.10;2.90;;;;;;;15.62;39.60;99233.31;5051362;28;20274;-66
2022/04/19 12:07:55;;;;;;;3.10;2.90;;;;;;;15.42;40.56;99232.84;5050174;28;20287;-67
2022/04/19 12:10:23;;;;;;;5.33;3.73;;;;;;;15.41;41.02;99236.56;5049747;28;20227;-66
2022/04/19 12:12:50;;;;;;;17.50;4.20;;;;;;;15.21;42.27;99236.06;5049524;28;20280;-66
2022/04/19 12:15:38;;;;;;;7.03;3.93;;;;;;;15.17;42.50;99256.31;5046149;28;20231;-65
2022/04/19 12:18:05;;;;;;;8.00;2.20;;;;;;;14.89;44.52;99263.34;5051730;28;20216;-64
2022/04/19 12:20:42;;;;;;;7.37;1.83;;;;;;;14.09;49.67;99267.28;5050630;28;20197;-64
2022/04/19 12:23:18;;;;;;;6.40;1.93;;;;;;;13.21;56.48;99259.81;5053154;28;20580;-65
2022/04/19 12:26:01;;;;;;;2.00;1.90;;;;;;;12.24;63.04;99258.56;5055035;28;20185;-66